• Join FlightAware (Why Join?)
  • Login
  • US Flag 
05:56PM EDT


 

Airport Tracker/Info


-or-


 

Live Flight TrackerFlight Track Log ✈ SKW5564 ✈ 23-Feb-2014 ✈ KLAS - KSFO

Flight Track Log - Related Links

Times and Time Zones

All times are in EST time to prevent confusion due to time zone crossing. See the SKW5564 flight status page for this flight to view local times or setup timezone preferences in your user account.

Time Position Orientation Groundspeed Altitude Reporting Facility
EST Latitude Longitude Course Direction KTS MPH feet Rate Location/Type
04:48PM 36.0764 -115.1894 270° West 174 200 3,600  Level Los Angeles Center
04:48PM 36.0750 -115.2325 268° West 193 222 4,700 2,220 Climbing Los Angeles Center
04:49PM 36.0608 -115.2589 236° Southwest 224 258 6,000 2,220 Climbing Los Angeles Center
04:49PM 36.0278 -115.2744 201° Southwest 233 268 7,000 1,980 Climbing Los Angeles Center
04:50PM 35.9975 -115.2881 200° South 249 287 8,100 2,700 Climbing Los Angeles Center
04:50PM 35.9575 -115.3186 212° Southwest 270 311 9,800 2,460 Climbing Los Angeles Center
04:51PM 35.9325 -115.3497 225° Southwest 276 318 10,700 1,740 Climbing Los Angeles Center
04:52PM 35.8834 -115.6836 270° West  Level FlightAware Approximate
04:52PM 35.8864 -115.4406 238° Southwest 329 379 12,500  Level Los Angeles Center
04:53PM 35.8834 -115.8284 270° West  Level FlightAware Approximate
04:53PM 35.8883 -115.5661 271° West 340 391 15,200  Level Los Angeles Center
04:54PM 35.8900 -115.6833 271° West 344 396 17,400 2,160 Climbing Los Angeles Center
04:55PM 35.8925 -115.8128 271° West 350 403 19,700 1,920 Climbing Los Angeles Center
04:56PM 35.8964 -115.9375 272° West 364 419 21,400 1,560 Climbing Los Angeles Center
04:57PM 35.9567 -116.0394 306° West 383 441 23,000 1,500 Climbing Los Angeles Center
04:58PM 36.0428 -116.1389 317° Northwest 391 450 24,500 1,380 Climbing Los Angeles Center
04:59PM 36.1206 -116.2319 316° Northwest 395 455 25,900 1,320 Climbing Los Angeles Center
05:00PM 36.2044 -116.3247 318° Northwest 401 461 27,300 1,080 Climbing Los Angeles Center
05:01PM 36.2875 -116.4222 317° Northwest 410 472 28,200 1,200 Climbing Los Angeles Center
05:02PM 36.3725 -116.5181 318° Northwest 414 476 29,800 1,500 Climbing Los Angeles Center
05:03PM 36.4706 -116.6353 316° Northwest 411 473 31,400 1,380 Climbing Los Angeles Center
05:04PM 36.5578 -116.7369 317° Northwest 410 472 32,700 1,380 Climbing Los Angeles Center
05:05PM 36.6511 -116.8122 327° Northwest 401 461 34,300 1,080 Climbing Los Angeles Center
05:06PM 36.7386 -116.8803 328° Northwest 395 455 35,000 1,020 Climbing Los Angeles Center
05:07PM 36.8394 -116.9556 329° Northwest 395 455 36,500 1,020 Climbing Los Angeles Center
05:08PM 36.9319 -117.0267 328° Northwest 392 451 37,200 540 Climbing Los Angeles Center
05:09PM 37.0250 -117.0978 329° Northwest 392 451 37,700 360 Climbing Los Angeles Center
05:10PM 37.1406 -117.1856 329° Northwest 402 463 38,000 120 Climbing Los Angeles Center
05:11PM 37.2386 -117.2622 328° Northwest 412 474 38,000  Level Los Angeles Center
05:12PM 37.3408 -117.3386 329° Northwest 424 488 38,000  Level Los Angeles Center
05:13PM 37.4486 -117.4058 334° Northwest 428 493 38,000  Level Los Angeles Center
05:14PM 37.5547 -117.4758 332° Northwest 428 493 38,000  Level Los Angeles Center
05:16PM 37.6625 -117.5458 333° Northwest 432 497 38,000  Level Los Angeles Center
05:17PM 37.7686 -117.6158 332° Northwest 428 493 38,000  Level Los Angeles Center
05:18PM 37.8736 -117.7386 317° Northwest 433 498 38,000  Level Los Angeles Center
05:19PM 37.9050 -117.8858 285° West 431 496 38,000  Level Los Angeles Center
05:20PM 37.8936 -118.0414 265° West 443 510 38,000  Level Los Angeles Center
05:21PM 37.8819 -118.1956 265° West 441 507 38,000  Level Los Angeles Center
05:22PM 37.8697 -118.3492 264° West 439 505 38,000  Level Los Angeles Center
05:23PM 37.8500 -118.5628 263° West 435 501 38,000  Level Oakland Center
05:24PM 37.8383 -118.7150 265° West 435 501 38,000  Level Oakland Center
05:25PM 37.8247 -118.8681 264° West 431 496 38,000  Level Oakland Center
05:26PM 37.8125 -119.0189 264° West 432 497 38,000  Level Oakland Center
05:27PM 37.7989 -119.1703 264° West 433 498 38,000  Level Oakland Center
05:28PM 37.7819 -119.3511 263° West 433 498 38,000  Level Oakland Center
05:29PM 37.7686 -119.5033 264° West 434 499 38,000  Level Oakland Center
05:30PM 37.7553 -119.6539 264° West 433 498 38,000  Level Oakland Center
05:31PM 37.7411 -119.8064 263° West 436 502 38,000  Level Oakland Center
05:32PM 37.7269 -119.9592 263° West 436 502 38,000  Level Oakland Center
05:33PM 37.7117 -120.1108 263° West 435 501 38,000 -180 Level Oakland Center
05:34PM 37.6975 -120.2633 263° West 436 502 37,700 -1,620 Descending Oakland Center
05:35PM 37.6819 -120.4233 263° West 454 522 34,700 -3,060 Descending Oakland Center
05:36PM 37.6656 -120.5847 263° West 460 529 31,500 -3,180 Descending Oakland Center
05:37PM 37.6497 -120.7453 263° West 459 528 28,300 -3,480 Descending Oakland Center
05:38PM 37.6303 -120.9328 263° West 452 520 24,400 -3,540 Descending Oakland Center
05:40PM 37.6136 -121.0894 262° West 449 517 21,100 -3,120 Descending Oakland Center
05:41PM 37.6000 -121.2500 264° West 430 495 18,000 -3,000 Descending Northern Cal TRACON
05:42PM 37.5833 -121.3833 261° West 407 468 15,000 -3,000 Descending Northern Cal TRACON
05:43PM 37.5667 -121.5167 261° West 392 451 12,000 -2,040 Descending Northern Cal TRACON
05:44PM 37.5333 -121.6500 253° West 349 402 11,000 -1,080 Descending Northern Cal TRACON
05:45PM 37.5167 -121.7500 258° West 292 336 9,900 -1,260 Descending Northern Cal TRACON
05:46PM 37.5000 -121.8500 258° West 289 333 8,400 -1,260 Descending Northern Cal TRACON
05:49PM 37.5333 -122.1167 310° West 231 266 4,800 -1,320 Descending Northern Cal TRACON
05:50PM 37.5500 -122.1833 288° West 223 257 3,400 -1,560 Descending Northern Cal TRACON
05:51PM 37.5833 -122.2500 302° West 215 247 1,900 -1,200 Descending Northern Cal TRACON
05:52PM 37.6000 -122.3167 288° West 152 175 900 -780 Descending Northern Cal TRACON
05:53PM 37.6144 -122.3606 293° West 155 178 200 -600 Descending Oakland Center